CXE weather

Chase City Municipal Airport
Chase City, Virginia, United States

Public forecast

Using degrees Fahrenheit for public forecast. Weather courtesy of forecast.io.

Current aviation weather report (METAR) for Chase City Municipal Airport

Retrieved 2020/04/05 00:15 UTC (0 seconds ago):

KCXE 050015Z AUTO 09004KT 10SM CLR 16/06 A2999 RMK AO1 T01560055

Closest aviation forecast (TAF) to Chase City Municipal Airport

Closest forecast is Danville Regional Airport, 42.2 nm (78.2 km) WSW. Retrieved 2020-04-05 00:22 UTC (0 seconds ago):

TAF KDAN 042320Z 0500/0524 VRB03KT P6SM SKC FM051600 20005KT P6SM SCT080